sensor_id;sensor_type;location;lat;lon;timestamp;P1;durP1;ratioP1;P2;durP2;ratioP2
32032;SDS011;31720;52.638;9.216;2023-02-18T00:01:47;8.35;;;0.70;;
32032;SDS011;31720;52.638;9.216;2023-02-18T00:04:48;4.97;;;0.70;;
32032;SDS011;31720;52.638;9.216;2023-02-18T00:07:49;6.25;;;1.00;;
32032;SDS011;31720;52.638;9.216;2023-02-18T00:10:51;6.85;;;0.85;;
32032;SDS011;31720;52.638;9.216;2023-02-18T00:13:54;5.57;;;0.73;;
32032;SDS011;31720;52.638;9.216;2023-02-18T00:16:57;9.63;;;0.98;;
32032;SDS011;31720;52.638;9.216;2023-02-18T00:19:58;3.70;;;0.70;;
32032;SDS011;31720;52.638;9.216;2023-02-18T00:23:00;5.03;;;0.80;;
32032;SDS011;31720;52.638;9.216;2023-02-18T00:26:02;1.10;;;0.50;;
32032;SDS011;31720;52.638;9.216;2023-02-18T00:29:06;5.97;;;1.27;;
32032;SDS011;31720;52.638;9.216;2023-02-18T00:32:08;2.03;;;0.43;;
32032;SDS011;31720;52.638;9.216;2023-02-18T00:35:09;5.53;;;0.70;;
32032;SDS011;31720;52.638;9.216;2023-02-18T00:38:10;5.85;;;1.02;;
32032;SDS011;31720;52.638;9.216;2023-02-18T00:41:12;6.32;;;0.95;;
32032;SDS011;31720;52.638;9.216;2023-02-18T00:44:16;8.45;;;0.65;;
32032;SDS011;31720;52.638;9.216;2023-02-18T00:47:18;1.55;;;1.20;;
32032;SDS011;31720;52.638;9.216;2023-02-18T00:50:19;8.40;;;1.35;;
32032;SDS011;31720;52.638;9.216;2023-02-18T00:53:20;4.60;;;0.80;;
32032;SDS011;31720;52.638;9.216;2023-02-18T00:56:22;7.97;;;1.02;;
32032;SDS011;31720;52.638;9.216;2023-02-18T00:59:25;1.75;;;0.68;;
32032;SDS011;31720;52.638;9.216;2023-02-18T01:02:26;1.48;;;0.60;;
32032;SDS011;31720;52.638;9.216;2023-02-18T01:05:27;6.43;;;0.82;;
32032;SDS011;31720;52.638;9.216;2023-02-18T01:08:29;1.48;;;0.50;;
32032;SDS011;31720;52.638;9.216;2023-02-18T01:11:30;6.93;;;0.68;;
32032;SDS011;31720;52.638;9.216;2023-02-18T01:14:33;6.80;;;1.15;;
32032;SDS011;31720;52.638;9.216;2023-02-18T01:17:34;5.50;;;0.50;;
32032;SDS011;31720;52.638;9.216;2023-02-18T01:20:36;2.65;;;0.55;;
32032;SDS011;31720;52.638;9.216;2023-02-18T01:23:39;2.30;;;0.57;;
32032;SDS011;31720;52.638;9.216;2023-02-18T01:26:41;3.80;;;1.05;;
32032;SDS011;31720;52.638;9.216;2023-02-18T01:29:43;5.72;;;0.73;;
32032;SDS011;31720;52.638;9.216;2023-02-18T01:32:45;8.73;;;0.88;;
32032;SDS011;31720;52.638;9.216;2023-02-18T01:35:46;4.90;;;0.57;;
32032;SDS011;31720;52.638;9.216;2023-02-18T01:38:48;4.40;;;1.05;;
32032;SDS011;31720;52.638;9.216;2023-02-18T01:41:49;6.00;;;0.70;;
32032;SDS011;31720;52.638;9.216;2023-02-18T01:44:52;2.13;;;1.20;;
32032;SDS011;31720;52.638;9.216;2023-02-18T01:47:54;5.25;;;1.40;;
32032;SDS011;31720;52.638;9.216;2023-02-18T01:50:56;8.43;;;0.85;;
32032;SDS011;31720;52.638;9.216;2023-02-18T01:54:02;0.90;;;0.60;;
32032;SDS011;31720;52.638;9.216;2023-02-18T01:57:09;6.68;;;0.82;;
32032;SDS011;31720;52.638;9.216;2023-02-18T02:00:15;2.53;;;0.85;;
32032;SDS011;31720;52.638;9.216;2023-02-18T02:03:20;6.05;;;0.43;;
32032;SDS011;31720;52.638;9.216;2023-02-18T02:06:22;6.07;;;1.05;;
32032;SDS011;31720;52.638;9.216;2023-02-18T02:09:25;9.98;;;0.77;;
32032;SDS011;31720;52.638;9.216;2023-02-18T02:12:32;2.65;;;0.63;;
32032;SDS011;31720;52.638;9.216;2023-02-18T02:15:46;9.02;;;0.40;;
32032;SDS011;31720;52.638;9.216;2023-02-18T02:18:55;3.97;;;0.40;;
32032;SDS011;31720;52.638;9.216;2023-02-18T02:22:12;3.65;;;0.73;;
32032;SDS011;31720;52.638;9.216;2023-02-18T02:25:38;7.15;;;1.30;;
32032;SDS011;31720;52.638;9.216;2023-02-18T02:29:03;2.72;;;0.55;;
32032;SDS011;31720;52.638;9.216;2023-02-18T02:36:03;7.40;;;0.93;;
32032;SDS011;31720;52.638;9.216;2023-02-18T02:39:12;1.50;;;0.73;;
32032;SDS011;31720;52.638;9.216;2023-02-18T02:42:20;6.15;;;0.77;;
32032;SDS011;31720;52.638;9.216;2023-02-18T02:45:34;7.45;;;0.70;;
32032;SDS011;31720;52.638;9.216;2023-02-18T02:48:50;10.95;;;0.75;;
32032;SDS011;31720;52.638;9.216;2023-02-18T02:52:00;3.03;;;0.85;;
32032;SDS011;31720;52.638;9.216;2023-02-18T02:55:07;3.53;;;1.15;;
32032;SDS011;31720;52.638;9.216;2023-02-18T02:58:10;5.38;;;0.52;;
32032;SDS011;31720;52.638;9.216;2023-02-18T03:01:18;9.25;;;0.95;;
32032;SDS011;31720;52.638;9.216;2023-02-18T03:04:40;8.70;;;1.08;;
32032;SDS011;31720;52.638;9.216;2023-02-18T03:11:24;4.53;;;0.82;;
32032;SDS011;31720;52.638;9.216;2023-02-18T03:14:31;3.70;;;0.60;;
32032;SDS011;31720;52.638;9.216;2023-02-18T03:17:43;4.68;;;1.33;;
32032;SDS011;31720;52.638;9.216;2023-02-18T03:20:50;1.85;;;0.82;;
32032;SDS011;31720;52.638;9.216;2023-02-18T03:23:56;4.00;;;0.55;;
32032;SDS011;31720;52.638;9.216;2023-02-18T03:27:03;4.07;;;0.95;;
32032;SDS011;31720;52.638;9.216;2023-02-18T03:30:10;4.07;;;1.33;;
32032;SDS011;31720;52.638;9.216;2023-02-18T03:33:16;3.75;;;0.63;;
32032;SDS011;31720;52.638;9.216;2023-02-18T03:36:23;5.53;;;1.25;;
32032;SDS011;31720;52.638;9.216;2023-02-18T03:39:27;3.28;;;0.90;;
32032;SDS011;31720;52.638;9.216;2023-02-18T03:42:30;3.38;;;1.10;;
32032;SDS011;31720;52.638;9.216;2023-02-18T03:45:32;5.30;;;1.02;;
32032;SDS011;31720;52.638;9.216;2023-02-18T03:48:34;4.50;;;0.77;;
32032;SDS011;31720;52.638;9.216;2023-02-18T03:51:35;10.25;;;1.15;;
32032;SDS011;31720;52.638;9.216;2023-02-18T03:54:38;9.38;;;1.60;;
32032;SDS011;31720;52.638;9.216;2023-02-18T03:57:40;5.57;;;1.60;;
32032;SDS011;31720;52.638;9.216;2023-02-18T04:00:41;7.72;;;2.60;;
32032;SDS011;31720;52.638;9.216;2023-02-18T04:03:43;7.18;;;1.60;;
32032;SDS011;31720;52.638;9.216;2023-02-18T04:06:44;3.45;;;1.58;;
32032;SDS011;31720;52.638;9.216;2023-02-18T04:09:47;6.22;;;2.17;;
32032;SDS011;31720;52.638;9.216;2023-02-18T04:12:48;5.68;;;1.55;;
32032;SDS011;31720;52.638;9.216;2023-02-18T04:15:50;7.85;;;1.98;;
32032;SDS011;31720;52.638;9.216;2023-02-18T04:18:52;3.72;;;1.23;;
32032;SDS011;31720;52.638;9.216;2023-02-18T04:21:53;4.75;;;1.35;;
32032;SDS011;31720;52.638;9.216;2023-02-18T04:24:55;5.18;;;1.00;;
32032;SDS011;31720;52.638;9.216;2023-02-18T04:27:58;13.30;;;1.48;;
32032;SDS011;31720;52.638;9.216;2023-02-18T04:30:59;5.00;;;1.33;;
32032;SDS011;31720;52.638;9.216;2023-02-18T04:34:00;1.77;;;1.05;;
32032;SDS011;31720;52.638;9.216;2023-02-18T04:37:02;13.60;;;1.42;;
32032;SDS011;31720;52.638;9.216;2023-02-18T04:40:05;5.65;;;1.63;;
32032;SDS011;31720;52.638;9.216;2023-02-18T04:43:07;9.13;;;1.80;;
32032;SDS011;31720;52.638;9.216;2023-02-18T04:46:09;7.20;;;1.60;;
32032;SDS011;31720;52.638;9.216;2023-02-18T04:49:10;9.05;;;1.63;;
32032;SDS011;31720;52.638;9.216;2023-02-18T04:52:11;4.80;;;1.67;;
32032;SDS011;31720;52.638;9.216;2023-02-18T04:55:15;4.57;;;1.90;;
32032;SDS011;31720;52.638;9.216;2023-02-18T04:58:16;8.88;;;1.95;;
32032;SDS011;31720;52.638;9.216;2023-02-18T05:01:18;10.27;;;1.65;;
32032;SDS011;31720;52.638;9.216;2023-02-18T05:04:19;8.35;;;1.73;;
32032;SDS011;31720;52.638;9.216;2023-02-18T05:07:20;8.82;;;1.90;;
32032;SDS011;31720;52.638;9.216;2023-02-18T05:10:23;8.63;;;2.60;;
32032;SDS011;31720;52.638;9.216;2023-02-18T05:13:24;6.10;;;2.08;;
32032;SDS011;31720;52.638;9.216;2023-02-18T05:16:26;8.68;;;2.25;;
32032;SDS011;31720;52.638;9.216;2023-02-18T05:19:27;10.82;;;2.97;;
32032;SDS011;31720;52.638;9.216;2023-02-18T05:22:28;4.95;;;1.77;;
32032;SDS011;31720;52.638;9.216;2023-02-18T05:25:31;4.63;;;1.70;;
32032;SDS011;31720;52.638;9.216;2023-02-18T05:28:33;12.63;;;2.53;;
32032;SDS011;31720;52.638;9.216;2023-02-18T05:31:34;7.78;;;2.20;;
32032;SDS011;31720;52.638;9.216;2023-02-18T05:34:37;16.77;;;2.58;;
32032;SDS011;31720;52.638;9.216;2023-02-18T05:37:38;5.95;;;2.33;;
32032;SDS011;31720;52.638;9.216;2023-02-18T05:40:41;4.35;;;2.28;;
32032;SDS011;31720;52.638;9.216;2023-02-18T05:43:42;6.43;;;2.15;;
32032;SDS011;31720;52.638;9.216;2023-02-18T05:46:58;5.00;;;2.10;;
32032;SDS011;31720;52.638;9.216;2023-02-18T05:50:00;3.92;;;2.15;;
32032;SDS011;31720;52.638;9.216;2023-02-18T05:53:02;2.53;;;1.77;;
32032;SDS011;31720;52.638;9.216;2023-02-18T05:56:05;5.05;;;2.50;;
32032;SDS011;31720;52.638;9.216;2023-02-18T05:59:07;5.63;;;2.50;;
32032;SDS011;31720;52.638;9.216;2023-02-18T06:02:08;3.95;;;2.58;;
32032;SDS011;31720;52.638;9.216;2023-02-18T06:05:10;8.18;;;3.08;;
32032;SDS011;31720;52.638;9.216;2023-02-18T06:08:11;7.97;;;3.28;;
32032;SDS011;31720;52.638;9.216;2023-02-18T06:11:14;12.50;;;4.20;;
32032;SDS011;31720;52.638;9.216;2023-02-18T06:14:15;9.70;;;3.92;;
32032;SDS011;31720;52.638;9.216;2023-02-18T06:17:17;8.30;;;2.90;;
32032;SDS011;31720;52.638;9.216;2023-02-18T06:20:18;8.88;;;3.42;;
32032;SDS011;31720;52.638;9.216;2023-02-18T06:23:20;5.40;;;3.10;;
32032;SDS011;31720;52.638;9.216;2023-02-18T06:26:22;10.32;;;3.55;;
32032;SDS011;31720;52.638;9.216;2023-02-18T06:29:24;11.27;;;3.13;;
32032;SDS011;31720;52.638;9.216;2023-02-18T06:32:27;9.93;;;3.85;;
32032;SDS011;31720;52.638;9.216;2023-02-18T06:35:28;13.52;;;4.03;;
32032;SDS011;31720;52.638;9.216;2023-02-18T06:38:29;8.63;;;3.60;;
32032;SDS011;31720;52.638;9.216;2023-02-18T06:41:32;6.53;;;3.60;;
32032;SDS011;31720;52.638;9.216;2023-02-18T06:44:34;7.53;;;3.80;;
32032;SDS011;31720;52.638;9.216;2023-02-18T06:47:35;9.55;;;4.13;;
32032;SDS011;31720;52.638;9.216;2023-02-18T06:50:36;11.05;;;4.78;;
32032;SDS011;31720;52.638;9.216;2023-02-18T06:53:38;13.00;;;5.47;;
32032;SDS011;31720;52.638;9.216;2023-02-18T06:56:40;12.38;;;5.55;;
32032;SDS011;31720;52.638;9.216;2023-02-18T06:59:42;12.30;;;5.45;;
32032;SDS011;31720;52.638;9.216;2023-02-18T07:02:44;13.63;;;6.22;;
32032;SDS011;31720;52.638;9.216;2023-02-18T07:05:45;15.18;;;5.10;;
32032;SDS011;31720;52.638;9.216;2023-02-18T07:08:46;14.18;;;7.03;;
32032;SDS011;31720;52.638;9.216;2023-02-18T07:11:49;14.23;;;7.30;;
32032;SDS011;31720;52.638;9.216;2023-02-18T07:14:50;18.25;;;7.75;;
32032;SDS011;31720;52.638;9.216;2023-02-18T07:17:52;19.15;;;8.27;;
32032;SDS011;31720;52.638;9.216;2023-02-18T07:20:53;16.75;;;7.60;;
32032;SDS011;31720;52.638;9.216;2023-02-18T07:23:55;14.43;;;6.88;;
32032;SDS011;31720;52.638;9.216;2023-02-18T07:26:57;23.02;;;9.00;;
32032;SDS011;31720;52.638;9.216;2023-02-18T07:29:59;24.52;;;8.50;;
32032;SDS011;31720;52.638;9.216;2023-02-18T07:33:00;18.30;;;8.43;;
32032;SDS011;31720;52.638;9.216;2023-02-18T07:36:02;29.38;;;10.02;;
32032;SDS011;31720;52.638;9.216;2023-02-18T07:39:03;16.65;;;8.10;;
32032;SDS011;31720;52.638;9.216;2023-02-18T07:42:06;23.52;;;8.70;;
32032;SDS011;31720;52.638;9.216;2023-02-18T07:45:08;20.13;;;8.48;;
32032;SDS011;31720;52.638;9.216;2023-02-18T07:48:10;21.38;;;7.63;;
32032;SDS011;31720;52.638;9.216;2023-02-18T07:51:12;18.33;;;7.55;;
32032;SDS011;31720;52.638;9.216;2023-02-18T07:54:13;19.40;;;8.10;;
32032;SDS011;31720;52.638;9.216;2023-02-18T07:57:16;17.73;;;6.45;;
32032;SDS011;31720;52.638;9.216;2023-02-18T08:00:17;20.45;;;7.07;;
32032;SDS011;31720;52.638;9.216;2023-02-18T08:03:19;12.93;;;5.90;;
32032;SDS011;31720;52.638;9.216;2023-02-18T08:06:24;16.13;;;5.65;;
32032;SDS011;31720;52.638;9.216;2023-02-18T08:09:27;19.65;;;6.60;;
32032;SDS011;31720;52.638;9.216;2023-02-18T08:12:30;13.68;;;5.82;;
32032;SDS011;31720;52.638;9.216;2023-02-18T08:15:31;15.65;;;5.22;;
32032;SDS011;31720;52.638;9.216;2023-02-18T08:18:33;10.88;;;4.80;;
32032;SDS011;31720;52.638;9.216;2023-02-18T08:21:34;10.63;;;4.57;;
32032;SDS011;31720;52.638;9.216;2023-02-18T08:24:35;8.40;;;3.25;;
32032;SDS011;31720;52.638;9.216;2023-02-18T08:27:38;3.67;;;2.08;;
32032;SDS011;31720;52.638;9.216;2023-02-18T08:30:42;6.85;;;2.25;;
32032;SDS011;31720;52.638;9.216;2023-02-18T08:33:45;6.45;;;2.75;;
32032;SDS011;31720;52.638;9.216;2023-02-18T08:36:47;5.90;;;2.53;;
32032;SDS011;31720;52.638;9.216;2023-02-18T08:39:48;5.85;;;2.83;;
32032;SDS011;31720;52.638;9.216;2023-02-18T08:42:51;4.30;;;2.08;;
32032;SDS011;31720;52.638;9.216;2023-02-18T08:45:52;4.10;;;2.00;;
32032;SDS011;31720;52.638;9.216;2023-02-18T08:48:54;5.45;;;2.17;;
32032;SDS011;31720;52.638;9.216;2023-02-18T08:51:55;3.17;;;2.13;;
32032;SDS011;31720;52.638;9.216;2023-02-18T08:54:56;5.60;;;1.80;;
32032;SDS011;31720;52.638;9.216;2023-02-18T08:57:59;4.70;;;2.10;;
32032;SDS011;31720;52.638;9.216;2023-02-18T09:01:01;3.63;;;2.00;;
32032;SDS011;31720;52.638;9.216;2023-02-18T09:04:03;2.85;;;1.85;;
32032;SDS011;31720;52.638;9.216;2023-02-18T09:07:05;2.67;;;1.55;;
32032;SDS011;31720;52.638;9.216;2023-02-18T09:10:06;2.50;;;1.75;;
32032;SDS011;31720;52.638;9.216;2023-02-18T09:13:10;3.00;;;1.90;;
32032;SDS011;31720;52.638;9.216;2023-02-18T09:16:12;1.75;;;1.10;;
32032;SDS011;31720;52.638;9.216;2023-02-18T09:19:17;2.67;;;1.33;;
32032;SDS011;31720;52.638;9.216;2023-02-18T09:22:18;3.13;;;1.50;;
32032;SDS011;31720;52.638;9.216;2023-02-18T09:25:20;2.30;;;1.25;;
32032;SDS011;31720;52.638;9.216;2023-02-18T09:28:23;2.72;;;1.20;;
32032;SDS011;31720;52.638;9.216;2023-02-18T09:31:26;2.53;;;1.42;;
32032;SDS011;31720;52.638;9.216;2023-02-18T09:34:27;1.42;;;0.80;;
32032;SDS011;31720;52.638;9.216;2023-02-18T09:37:29;1.08;;;0.88;;
32032;SDS011;31720;52.638;9.216;2023-02-18T09:40:31;1.33;;;0.88;;
32032;SDS011;31720;52.638;9.216;2023-02-18T09:43:37;1.08;;;0.88;;
32032;SDS011;31720;52.638;9.216;2023-02-18T09:46:45;2.00;;;0.90;;
32032;SDS011;31720;52.638;9.216;2023-02-18T09:49:51;1.85;;;0.98;;
32032;SDS011;31720;52.638;9.216;2023-02-18T09:52:55;1.83;;;0.98;;
32032;SDS011;31720;52.638;9.216;2023-02-18T09:55:58;0.85;;;0.60;;
32032;SDS011;31720;52.638;9.216;2023-02-18T09:59:03;1.50;;;0.95;;
32032;SDS011;31720;52.638;9.216;2023-02-18T10:02:08;1.35;;;1.13;;
32032;SDS011;31720;52.638;9.216;2023-02-18T10:05:15;3.38;;;1.42;;
32032;SDS011;31720;52.638;9.216;2023-02-18T10:08:18;1.95;;;1.17;;
32032;SDS011;31720;52.638;9.216;2023-02-18T10:11:23;2.30;;;1.70;;
32032;SDS011;31720;52.638;9.216;2023-02-18T10:14:31;4.15;;;2.17;;
32032;SDS011;31720;52.638;9.216;2023-02-18T10:17:34;4.07;;;2.15;;
32032;SDS011;31720;52.638;9.216;2023-02-18T10:20:38;4.18;;;2.53;;
32032;SDS011;31720;52.638;9.216;2023-02-18T10:23:39;4.57;;;2.10;;
32032;SDS011;31720;52.638;9.216;2023-02-18T10:26:43;6.00;;;2.75;;
32032;SDS011;31720;52.638;9.216;2023-02-18T10:29:46;6.03;;;3.05;;
32032;SDS011;31720;52.638;9.216;2023-02-18T10:32:49;5.78;;;2.47;;
32032;SDS011;31720;52.638;9.216;2023-02-18T10:35:56;5.82;;;2.53;;
32032;SDS011;31720;52.638;9.216;2023-02-18T10:39:19;3.93;;;2.43;;
32032;SDS011;31720;52.638;9.216;2023-02-18T10:42:34;3.17;;;2.00;;
32032;SDS011;31720;52.638;9.216;2023-02-18T10:45:44;3.90;;;1.85;;
32032;SDS011;31720;52.638;9.216;2023-02-18T10:48:56;6.40;;;2.53;;
32032;SDS011;31720;52.638;9.216;2023-02-18T10:52:12;2.85;;;1.60;;
32032;SDS011;31720;52.638;9.216;2023-02-18T10:55:17;3.50;;;1.80;;
32032;SDS011;31720;52.638;9.216;2023-02-18T10:58:26;2.33;;;1.25;;
32032;SDS011;31720;52.638;9.216;2023-02-18T11:01:32;1.90;;;1.58;;
32032;SDS011;31720;52.638;9.216;2023-02-18T11:04:35;4.32;;;1.48;;
32032;SDS011;31720;52.638;9.216;2023-02-18T11:07:38;2.58;;;1.15;;
32032;SDS011;31720;52.638;9.216;2023-02-18T11:10:41;1.48;;;0.98;;
32032;SDS011;31720;52.638;9.216;2023-02-18T11:13:45;2.22;;;1.17;;
32032;SDS011;31720;52.638;9.216;2023-02-18T11:16:54;2.60;;;1.52;;
32032;SDS011;31720;52.638;9.216;2023-02-18T11:20:19;3.47;;;1.55;;
32032;SDS011;31720;52.638;9.216;2023-02-18T11:23:22;1.77;;;1.25;;
32032;SDS011;31720;52.638;9.216;2023-02-18T11:26:26;2.40;;;1.50;;
32032;SDS011;31720;52.638;9.216;2023-02-18T11:29:30;2.80;;;1.73;;
32032;SDS011;31720;52.638;9.216;2023-02-18T11:32:34;3.08;;;1.27;;
32032;SDS011;31720;52.638;9.216;2023-02-18T11:35:36;3.03;;;2.03;;
32032;SDS011;31720;52.638;9.216;2023-02-18T11:38:40;3.65;;;1.83;;
32032;SDS011;31720;52.638;9.216;2023-02-18T11:41:45;2.03;;;1.45;;
32032;SDS011;31720;52.638;9.216;2023-02-18T11:44:49;2.50;;;1.42;;
32032;SDS011;31720;52.638;9.216;2023-02-18T11:47:58;5.60;;;1.60;;
32032;SDS011;31720;52.638;9.216;2023-02-18T11:51:01;3.75;;;1.83;;
32032;SDS011;31720;52.638;9.216;2023-02-18T11:54:04;3.05;;;1.75;;
32032;SDS011;31720;52.638;9.216;2023-02-18T11:57:21;3.92;;;1.85;;
32032;SDS011;31720;52.638;9.216;2023-02-18T12:00:30;2.92;;;1.45;;
32032;SDS011;31720;52.638;9.216;2023-02-18T12:03:40;2.42;;;1.40;;
32032;SDS011;31720;52.638;9.216;2023-02-18T12:09:50;1.60;;;1.08;;
32032;SDS011;31720;52.638;9.216;2023-02-18T12:12:58;2.85;;;1.08;;
32032;SDS011;31720;52.638;9.216;2023-02-18T12:16:06;1.70;;;1.02;;
32032;SDS011;31720;52.638;9.216;2023-02-18T12:19:33;1.02;;;0.85;;
32032;SDS011;31720;52.638;9.216;2023-02-18T12:22:46;1.42;;;1.17;;
32032;SDS011;31720;52.638;9.216;2023-02-18T12:25:54;3.60;;;0.90;;
32032;SDS011;31720;52.638;9.216;2023-02-18T12:29:16;1.42;;;1.02;;
32032;SDS011;31720;52.638;9.216;2023-02-18T12:32:33;2.08;;;1.00;;
32032;SDS011;31720;52.638;9.216;2023-02-18T12:39:11;1.80;;;1.35;;
32032;SDS011;31720;52.638;9.216;2023-02-18T12:42:27;4.38;;;1.30;;
32032;SDS011;31720;52.638;9.216;2023-02-18T12:45:44;3.25;;;1.98;;
32032;SDS011;31720;52.638;9.216;2023-02-18T12:48:59;2.63;;;1.52;;
32032;SDS011;31720;52.638;9.216;2023-02-18T12:52:11;4.10;;;1.60;;
32032;SDS011;31720;52.638;9.216;2023-02-18T12:55:29;3.20;;;1.58;;
32032;SDS011;31720;52.638;9.216;2023-02-18T12:58:43;7.28;;;1.73;;
32032;SDS011;31720;52.638;9.216;2023-02-18T13:01:54;2.63;;;1.70;;
32032;SDS011;31720;52.638;9.216;2023-02-18T13:05:09;4.63;;;1.90;;
32032;SDS011;31720;52.638;9.216;2023-02-18T13:08:23;3.85;;;2.20;;
32032;SDS011;31720;52.638;9.216;2023-02-18T13:11:35;12.52;;;2.10;;
32032;SDS011;31720;52.638;9.216;2023-02-18T13:14:47;2.83;;;1.50;;
32032;SDS011;31720;52.638;9.216;2023-02-18T13:17:56;4.70;;;2.22;;
32032;SDS011;31720;52.638;9.216;2023-02-18T13:21:02;6.65;;;1.92;;
32032;SDS011;31720;52.638;9.216;2023-02-18T13:24:08;2.55;;;1.83;;
32032;SDS011;31720;52.638;9.216;2023-02-18T13:27:13;3.40;;;2.35;;
32032;SDS011;31720;52.638;9.216;2023-02-18T13:30:22;4.10;;;2.47;;
32032;SDS011;31720;52.638;9.216;2023-02-18T13:33:31;3.13;;;1.92;;
32032;SDS011;31720;52.638;9.216;2023-02-18T13:40:03;4.00;;;2.25;;
32032;SDS011;31720;52.638;9.216;2023-02-18T13:43:17;10.27;;;3.53;;
32032;SDS011;31720;52.638;9.216;2023-02-18T13:46:21;4.30;;;2.17;;
32032;SDS011;31720;52.638;9.216;2023-02-18T13:49:23;4.22;;;2.20;;
32032;SDS011;31720;52.638;9.216;2023-02-18T13:52:26;6.65;;;2.15;;
32032;SDS011;31720;52.638;9.216;2023-02-18T13:55:33;4.70;;;2.22;;
32032;SDS011;31720;52.638;9.216;2023-02-18T13:58:40;5.38;;;2.40;;
32032;SDS011;31720;52.638;9.216;2023-02-18T14:01:44;8.82;;;3.28;;
32032;SDS011;31720;52.638;9.216;2023-02-18T14:04:49;6.32;;;2.25;;
32032;SDS011;31720;52.638;9.216;2023-02-18T14:08:03;5.05;;;1.92;;
32032;SDS011;31720;52.638;9.216;2023-02-18T14:11:30;8.25;;;2.60;;
32032;SDS011;31720;52.638;9.216;2023-02-18T14:14:36;6.07;;;2.40;;
32032;SDS011;31720;52.638;9.216;2023-02-18T14:17:40;3.78;;;2.15;;
32032;SDS011;31720;52.638;9.216;2023-02-18T14:20:44;2.58;;;1.95;;
32032;SDS011;31720;52.638;9.216;2023-02-18T14:23:59;6.25;;;2.30;;
32032;SDS011;31720;52.638;9.216;2023-02-18T14:27:07;7.38;;;2.58;;
32032;SDS011;31720;52.638;9.216;2023-02-18T14:30:17;5.05;;;2.28;;
32032;SDS011;31720;52.638;9.216;2023-02-18T14:33:24;6.73;;;2.67;;
32032;SDS011;31720;52.638;9.216;2023-02-18T14:36:28;7.63;;;2.10;;
32032;SDS011;31720;52.638;9.216;2023-02-18T14:39:37;6.07;;;2.55;;
32032;SDS011;31720;52.638;9.216;2023-02-18T14:42:51;4.65;;;2.40;;
32032;SDS011;31720;52.638;9.216;2023-02-18T14:46:11;4.65;;;2.20;;
32032;SDS011;31720;52.638;9.216;2023-02-18T14:49:35;15.10;;;2.45;;
32032;SDS011;31720;52.638;9.216;2023-02-18T14:52:40;5.55;;;1.38;;
32032;SDS011;31720;52.638;9.216;2023-02-18T14:55:45;7.38;;;1.85;;
32032;SDS011;31720;52.638;9.216;2023-02-18T14:58:51;4.57;;;2.00;;
32032;SDS011;31720;52.638;9.216;2023-02-18T15:01:56;7.05;;;3.70;;
32032;SDS011;31720;52.638;9.216;2023-02-18T15:05:07;10.27;;;2.00;;
32032;SDS011;31720;52.638;9.216;2023-02-18T15:08:13;3.55;;;1.80;;
32032;SDS011;31720;52.638;9.216;2023-02-18T15:11:16;4.75;;;2.00;;
32032;SDS011;31720;52.638;9.216;2023-02-18T15:14:22;4.20;;;2.00;;
32032;SDS011;31720;52.638;9.216;2023-02-18T15:17:26;3.92;;;1.85;;
32032;SDS011;31720;52.638;9.216;2023-02-18T15:20:27;11.13;;;2.83;;
32032;SDS011;31720;52.638;9.216;2023-02-18T15:23:33;12.25;;;1.73;;
32032;SDS011;31720;52.638;9.216;2023-02-18T15:26:40;3.97;;;1.50;;
32032;SDS011;31720;52.638;9.216;2023-02-18T15:29:47;3.78;;;1.50;;
32032;SDS011;31720;52.638;9.216;2023-02-18T15:32:50;10.35;;;1.48;;
32032;SDS011;31720;52.638;9.216;2023-02-18T15:35:59;2.67;;;1.60;;
32032;SDS011;31720;52.638;9.216;2023-02-18T15:39:00;2.20;;;1.27;;
32032;SDS011;31720;52.638;9.216;2023-02-18T15:42:05;1.65;;;1.00;;
32032;SDS011;31720;52.638;9.216;2023-02-18T15:45:14;9.05;;;2.10;;
32032;SDS011;31720;52.638;9.216;2023-02-18T15:48:21;7.07;;;1.52;;
32032;SDS011;31720;52.638;9.216;2023-02-18T15:51:28;6.30;;;1.27;;
32032;SDS011;31720;52.638;9.216;2023-02-18T15:54:31;1.40;;;1.20;;
32032;SDS011;31720;52.638;9.216;2023-02-18T15:57:33;4.38;;;2.20;;
32032;SDS011;31720;52.638;9.216;2023-02-18T16:00:39;5.80;;;1.90;;
32032;SDS011;31720;52.638;9.216;2023-02-18T16:03:47;3.90;;;1.67;;
32032;SDS011;31720;52.638;9.216;2023-02-18T16:06:50;5.38;;;1.80;;
32032;SDS011;31720;52.638;9.216;2023-02-18T16:10:07;5.72;;;2.08;;
32032;SDS011;31720;52.638;9.216;2023-02-18T16:13:15;10.13;;;1.65;;
32032;SDS011;31720;52.638;9.216;2023-02-18T16:16:20;3.63;;;1.52;;
32032;SDS011;31720;52.638;9.216;2023-02-18T16:19:24;12.98;;;2.28;;
32032;SDS011;31720;52.638;9.216;2023-02-18T16:22:31;7.20;;;1.63;;
32032;SDS011;31720;52.638;9.216;2023-02-18T16:25:38;2.80;;;1.67;;
32032;SDS011;31720;52.638;9.216;2023-02-18T16:28:44;7.57;;;1.88;;
32032;SDS011;31720;52.638;9.216;2023-02-18T16:31:47;7.15;;;1.52;;
32032;SDS011;31720;52.638;9.216;2023-02-18T16:34:48;9.45;;;1.98;;
32032;SDS011;31720;52.638;9.216;2023-02-18T16:37:51;3.17;;;0.90;;
32032;SDS011;31720;52.638;9.216;2023-02-18T16:40:53;5.80;;;1.20;;
32032;SDS011;31720;52.638;9.216;2023-02-18T16:43:54;7.50;;;1.05;;
32032;SDS011;31720;52.638;9.216;2023-02-18T16:46:58;9.32;;;1.45;;
32032;SDS011;31720;52.638;9.216;2023-02-18T16:49:59;6.10;;;1.25;;
32032;SDS011;31720;52.638;9.216;2023-02-18T16:53:01;2.50;;;1.33;;
32032;SDS011;31720;52.638;9.216;2023-02-18T16:56:02;3.60;;;0.80;;
32032;SDS011;31720;52.638;9.216;2023-02-18T16:59:04;1.88;;;1.23;;
32032;SDS011;31720;52.638;9.216;2023-02-18T17:02:10;2.28;;;0.77;;
32032;SDS011;31720;52.638;9.216;2023-02-18T17:05:19;4.43;;;1.27;;
32032;SDS011;31720;52.638;9.216;2023-02-18T17:08:23;3.28;;;1.17;;
32032;SDS011;31720;52.638;9.216;2023-02-18T17:11:27;7.43;;;0.93;;
32032;SDS011;31720;52.638;9.216;2023-02-18T17:14:30;5.03;;;1.00;;
32032;SDS011;31720;52.638;9.216;2023-02-18T17:17:33;2.00;;;0.70;;
32032;SDS011;31720;52.638;9.216;2023-02-18T17:20:35;2.08;;;0.95;;
32032;SDS011;31720;52.638;9.216;2023-02-18T17:23:36;6.88;;;1.95;;
32032;SDS011;31720;52.638;9.216;2023-02-18T17:26:38;3.30;;;1.85;;
32032;SDS011;31720;52.638;9.216;2023-02-18T17:29:40;2.80;;;1.17;;
32032;SDS011;31720;52.638;9.216;2023-02-18T17:32:42;6.60;;;1.88;;
32032;SDS011;31720;52.638;9.216;2023-02-18T17:35:45;3.97;;;1.65;;
32032;SDS011;31720;52.638;9.216;2023-02-18T17:38:46;3.40;;;1.15;;
32032;SDS011;31720;52.638;9.216;2023-02-18T17:41:49;8.35;;;1.48;;
32032;SDS011;31720;52.638;9.216;2023-02-18T17:44:51;6.30;;;1.08;;
32032;SDS011;31720;52.638;9.216;2023-02-18T17:47:53;4.03;;;1.00;;
32032;SDS011;31720;52.638;9.216;2023-02-18T17:50:55;6.90;;;1.10;;
32032;SDS011;31720;52.638;9.216;2023-02-18T17:53:57;6.63;;;1.25;;
32032;SDS011;31720;52.638;9.216;2023-02-18T17:56:58;1.27;;;0.98;;
32032;SDS011;31720;52.638;9.216;2023-02-18T17:59:59;5.82;;;1.00;;
32032;SDS011;31720;52.638;9.216;2023-02-18T18:03:02;5.40;;;1.02;;
32032;SDS011;31720;52.638;9.216;2023-02-18T18:06:05;9.52;;;1.70;;
32032;SDS011;31720;52.638;9.216;2023-02-18T18:09:14;8.10;;;2.97;;
32032;SDS011;31720;52.638;9.216;2023-02-18T18:12:15;3.80;;;1.42;;
32032;SDS011;31720;52.638;9.216;2023-02-18T18:15:21;8.50;;;1.40;;
32032;SDS011;31720;52.638;9.216;2023-02-18T18:18:26;8.30;;;1.23;;
32032;SDS011;31720;52.638;9.216;2023-02-18T18:21:28;4.03;;;1.60;;
32032;SDS011;31720;52.638;9.216;2023-02-18T18:24:32;8.65;;;1.80;;
32032;SDS011;31720;52.638;9.216;2023-02-18T18:27:33;4.00;;;1.48;;
32032;SDS011;31720;52.638;9.216;2023-02-18T18:30:36;2.28;;;1.33;;
32032;SDS011;31720;52.638;9.216;2023-02-18T18:33:40;8.10;;;2.35;;
32032;SDS011;31720;52.638;9.216;2023-02-18T18:36:47;3.25;;;1.35;;
32032;SDS011;31720;52.638;9.216;2023-02-18T18:39:48;3.67;;;1.45;;
32032;SDS011;31720;52.638;9.216;2023-02-18T18:42:50;2.92;;;1.48;;
32032;SDS011;31720;52.638;9.216;2023-02-18T18:45:51;6.03;;;1.02;;
32032;SDS011;31720;52.638;9.216;2023-02-18T18:48:55;6.65;;;1.13;;